Time;durP1;ratioP1;P1;durP2;ratioP2;P2;SDS_P1;SDS_P2;PMS_P1;PMS_P2;Temp;Humidity;BMP_temperature;BMP_pressure;BME280_temperature;BME280_humidity;BME280_pressure;Samples;Min_cycle;Max_cycle;Signal;HPM_P1;HPM_P2
2021/12/22 00:02:07;;;;;;;11.27;10.18;;;;;;;-1.32;53.84;95674.13;5074550;28;20193;-64
2021/12/22 00:04:39;;;;;;;12.32;11.23;;;;;;;-1.34;53.72;95670.91;5091304;28;20230;-64
2021/12/22 00:07:06;;;;;;;13.25;11.95;;;;;;;-1.38;54.03;95671.66;5075257;28;20193;-64
2021/12/22 00:09:33;;;;;;;13.55;12.07;;;;;;;-1.43;54.35;95671.66;5075327;28;20181;-64
2021/12/22 00:12:00;;;;;;;13.27;11.88;;;;;;;-1.49;53.93;95681.63;5075376;28;20200;-64
2021/12/22 00:14:27;;;;;;;12.52;11.32;;;;;;;-1.57;54.39;95672.09;5074927;28;20185;-64
2021/12/22 00:16:55;;;;;;;12.52;11.23;;;;;;;-1.62;54.44;95672.09;5091218;28;20201;-64
2021/12/22 00:19:22;;;;;;;12.93;11.63;;;;;;;-1.66;54.39;95668.28;5074395;28;20238;-64
2021/12/22 00:21:49;;;;;;;12.82;11.52;;;;;;;-1.66;54.46;95681.81;5075169;28;20177;-64
2021/12/22 00:24:16;;;;;;;12.20;10.98;;;;;;;-1.68;54.69;95669.59;5091356;28;20234;-64
2021/12/22 00:26:42;;;;;;;13.07;11.77;;;;;;;-1.71;54.80;95657.41;5075153;28;20199;-64
2021/12/22 00:29:10;;;;;;;13.02;11.65;;;;;;;-1.69;54.94;95666.09;5075033;28;20196;-64
2021/12/22 00:31:42;;;;;;;13.90;12.52;;;;;;;-1.74;54.89;95661.47;5091653;28;20558;-64
2021/12/22 00:34:16;;;;;;;15.20;12.88;;;;;;;-1.75;54.40;95669.81;5075155;28;20185;-64
2021/12/22 00:36:43;;;;;;;13.70;12.27;;;;;;;-1.77;54.67;95680.91;5075062;28;20185;-63
2021/12/22 00:39:10;;;;;;;13.55;12.30;;;;;;;-1.81;54.63;95676.31;5074782;28;20189;-63
2021/12/22 00:41:37;;;;;;;13.70;12.30;;;;;;;-1.83;55.16;95679.25;5074693;28;20555;-64
2021/12/22 00:44:04;;;;;;;13.60;12.20;;;;;;;-1.83;55.21;95690.06;5091203;28;20225;-64
2021/12/22 00:46:31;;;;;;;14.27;12.88;;;;;;;-1.81;55.16;95687.13;5073854;28;20209;-64
2021/12/22 00:48:58;;;;;;;13.55;12.25;;;;;;;-1.81;54.91;95693.34;5074908;28;20204;-64
2021/12/22 00:51:26;;;;;;;12.70;11.38;;;;;;;-1.76;54.29;95687.94;5074638;28;20185;-64
2021/12/22 00:53:53;;;;;;;11.18;10.07;;;;;;;-1.65;53.97;95685.31;5090894;28;20209;-64
2021/12/22 00:56:20;;;;;;;12.93;11.60;;;;;;;-1.63;54.71;95688.59;5075014;28;20255;-64
2021/12/22 00:58:46;;;;;;;15.73;14.13;;;;;;;-1.84;55.77;95684.94;5074225;28;20299;-64
2021/12/22 01:01:13;;;;;;;16.55;14.95;;;;;;;-1.98;56.17;95687.25;5076338;28;20510;-64
2021/12/22 01:03:40;;;;;;;17.23;15.52;;;;;;;-2.09;56.27;95697.16;5078049;28;20199;-64
2021/12/22 01:06:07;;;;;;;18.23;16.50;;;;;;;-2.16;56.76;95693.06;5079062;28;20189;-64
2021/12/22 01:08:35;;;;;;;22.15;19.95;;;;;;;-2.19;56.66;95694.38;5078815;28;20181;-64
2021/12/22 01:11:02;;;;;;;28.45;25.20;;;;;;;-2.15;56.93;95689.28;5078625;28;20185;-64
2021/12/22 01:13:29;;;;;;;31.35;27.95;;;;;;;-2.21;56.83;95685.72;5078113;28;20204;-64
2021/12/22 01:15:56;;;;;;;39.13;33.50;;;;;;;-2.28;56.69;95677.00;5078513;28;20182;-64
2021/12/22 01:18:30;;;;;;;33.47;29.83;;;;;;;-2.34;56.94;95678.03;5078554;28;20190;-64
2021/12/22 01:21:05;;;;;;;27.13;24.40;;;;;;;-2.33;57.03;95683.16;5078289;28;20199;-64
2021/12/22 01:23:37;;;;;;;27.30;24.38;;;;;;;-2.37;57.28;95678.53;5094428;28;20200;-64
2021/12/22 01:26:07;;;;;;;26.85;24.00;;;;;;;-2.37;57.83;95673.94;5077941;28;20232;-64
2021/12/22 01:28:41;;;;;;;28.15;24.75;;;;;;;-2.39;57.83;95675.28;5078333;28;20181;-64
2021/12/22 01:31:13;;;;;;;24.98;22.33;;;;;;;-2.46;57.98;95675.50;5094293;28;20287;-64
2021/12/22 01:33:40;;;;;;;24.83;22.02;;;;;;;-2.49;57.87;95670.59;5078222;28;20192;-64
2021/12/22 01:36:07;;;;;;;25.50;22.77;;;;;;;-2.51;57.61;95675.44;5078174;28;20189;-64
2021/12/22 01:38:34;;;;;;;25.35;22.63;;;;;;;-2.56;57.75;95670.81;5078322;28;20182;-64
2021/12/22 01:41:00;;;;;;;26.67;23.75;;;;;;;-2.56;58.48;95673.50;5078019;28;20190;-64
2021/12/22 01:43:29;;;;;;;24.25;21.65;;;;;;;-2.55;58.08;95661.63;5077618;28;20193;-64
2021/12/22 01:46:19;;;;;;;24.77;22.05;;;;;;;-2.58;58.26;95664.03;5093920;28;20220;-64
2021/12/22 01:51:35;;;;;;;37.05;30.73;;;;;;;-2.66;58.25;95657.19;5077627;28;20177;-64
2021/12/22 01:54:05;;;;;;;39.08;32.10;;;;;;;-2.66;58.38;95655.31;5093892;28;20212;-64
2021/12/22 01:56:33;;;;;;;40.85;34.25;;;;;;;-2.67;58.49;95661.78;5077568;28;20255;-64
2021/12/22 01:59:04;;;;;;;34.78;30.15;;;;;;;-2.75;58.56;95664.94;5093718;28;20208;-64
2021/12/22 02:01:32;;;;;;;30.77;27.58;;;;;;;-2.79;58.70;95654.94;5078141;28;20203;-64
2021/12/22 02:03:59;;;;;;;29.75;26.50;;;;;;;-2.81;58.42;95657.06;5077604;28;20189;-64
2021/12/22 02:06:26;;;;;;;30.75;27.42;;;;;;;-2.84;58.72;95644.88;5076926;28;20193;-64
2021/12/22 02:08:54;;;;;;;26.73;23.95;;;;;;;-2.82;58.79;95653.53;5093528;28;20208;-64
2021/12/22 02:11:22;;;;;;;25.75;23.23;;;;;;;-2.83;58.95;95657.31;5076387;28;20181;-64
2021/12/22 02:13:55;;;;;;;25.38;22.73;;;;;;;-2.88;59.28;95654.53;5076974;28;20185;-64
2021/12/22 02:16:27;;;;;;;27.65;24.85;;;;;;;-2.89;59.06;95657.50;5076647;28;20236;-64
2021/12/22 02:18:55;;;;;;;28.13;25.20;;;;;;;-2.93;59.25;95655.31;5093301;28;20232;-64
2021/12/22 02:21:26;;;;;;;27.55;24.77;;;;;;;-2.95;58.73;95652.03;5077383;28;20185;-64
2021/12/22 02:23:53;;;;;;;28.48;25.67;;;;;;;-2.99;58.98;95644.72;5076748;28;20208;-64
2021/12/22 02:26:24;;;;;;;27.25;24.42;;;;;;;-3.00;59.13;95640.38;5077225;28;20209;-64
2021/12/22 02:28:58;;;;;;;26.98;24.33;;;;;;;-2.98;59.05;95654.44;5076263;28;20201;-64
2021/12/22 02:31:26;;;;;;;27.65;24.95;;;;;;;-2.97;58.82;95646.09;5077205;28;20243;-64
2021/12/22 02:33:53;;;;;;;28.33;25.40;;;;;;;-2.93;59.47;95643.72;5077228;28;20197;-64
2021/12/22 02:36:23;;;;;;;26.30;23.73;;;;;;;-2.92;59.17;95643.44;5077124;28;20235;-64
2021/12/22 02:38:55;;;;;;;27.70;24.90;;;;;;;-2.94;59.80;95636.69;5093052;28;20232;-64
2021/12/22 02:41:26;;;;;;;27.55;24.70;;;;;;;-2.98;59.31;95635.53;5076077;28;20198;-64
2021/12/22 02:43:54;;;;;;;26.10;23.50;;;;;;;-3.01;59.23;95626.09;5077036;28;20199;-64
2021/12/22 02:46:23;;;;;;;28.33;25.20;;;;;;;-3.03;59.96;95633.59;5076964;28;20220;-64
2021/12/22 02:48:50;;;;;;;26.65;23.95;;;;;;;-3.04;60.27;95636.56;5092989;28;20509;-64
2021/12/22 02:51:18;;;;;;;25.98;23.48;;;;;;;-3.04;59.92;95640.09;5092732;28;20581;-64
2021/12/22 02:53:49;;;;;;;24.58;22.08;;;;;;;-3.08;59.94;95635.44;5076815;28;20323;-64
2021/12/22 02:56:33;;;;;;;24.40;21.95;;;;;;;-3.10;60.26;95630.28;5075695;28;20229;-64
2021/12/22 02:59:11;;;;;;;23.90;21.45;;;;;;;-3.11;60.44;95635.94;5076654;28;20259;-64
2021/12/22 03:02:06;;;;;;;25.08;22.45;;;;;;;-3.16;59.79;95642.09;5076974;28;20491;-64
2021/12/22 03:04:43;;;;;;;21.50;19.52;;;;;;;-3.21;59.64;95636.66;5075735;28;20219;-64
2021/12/22 03:07:13;;;;;;;18.92;17.13;;;;;;;-3.23;59.73;95636.06;5076068;28;20594;-64
2021/12/22 03:09:42;;;;;;;17.33;15.75;;;;;;;-3.30;59.92;95641.69;5076583;28;20201;-64
2021/12/22 03:12:13;;;;;;;16.15;14.85;;;;;;;-3.34;60.27;95640.56;5076532;28;20193;-64
2021/12/22 03:14:40;;;;;;;19.73;17.83;;;;;;;-3.31;60.04;95636.53;5092498;28;20189;-64
2021/12/22 03:17:07;;;;;;;18.90;17.00;;;;;;;-3.35;59.96;95630.00;5075279;28;20618;-64
2021/12/22 03:19:36;;;;;;;19.40;17.50;;;;;;;-3.41;59.94;95629.94;5091933;28;20200;-64
2021/12/22 03:22:04;;;;;;;17.10;15.60;;;;;;;-3.44;60.25;95629.63;5076191;28;20201;-63
2021/12/22 03:24:33;;;;;;;16.10;14.70;;;;;;;-3.46;60.34;95637.16;5075634;28;20271;-63
2021/12/22 03:27:02;;;;;;;16.45;15.05;;;;;;;-3.46;60.04;95634.44;5075729;28;20174;-63
2021/12/22 03:29:32;;;;;;;16.10;14.63;;;;;;;-3.47;60.34;95640.91;5076445;28;20192;-63
2021/12/22 03:31:59;;;;;;;18.10;16.40;;;;;;;-3.47;60.23;95643.63;5075255;28;20200;-63
2021/12/22 03:34:26;;;;;;;16.27;14.77;;;;;;;-3.47;60.14;95639.03;5075278;28;20189;-63
2021/12/22 03:36:53;;;;;;;14.90;13.55;;;;;;;-3.53;60.32;95636.53;5074802;28;20193;-63
2021/12/22 03:39:20;;;;;;;14.55;13.23;;;;;;;-3.54;60.17;95634.91;5091818;28;20200;-63
2021/12/22 03:41:48;;;;;;;20.08;17.98;;;;;;;-3.54;60.00;95630.31;5074992;28;20207;-63
2021/12/22 03:44:15;;;;;;;21.23;19.25;;;;;;;-3.53;60.11;95631.94;5075791;28;20271;-63
2021/12/22 03:46:43;;;;;;;23.50;21.27;;;;;;;-3.51;59.94;95629.81;5075613;28;20209;-63
2021/12/22 03:49:11;;;;;;;26.05;23.55;;;;;;;-3.46;59.99;95643.34;5075354;28;20517;-63
2021/12/22 03:51:38;;;;;;;24.52;22.20;;;;;;;-3.46;60.33;95637.16;5075902;28;20181;-63
2021/12/22 03:54:07;;;;;;;22.02;19.98;;;;;;;-3.47;60.49;95644.44;5091287;28;20209;-63
2021/12/22 03:56:33;;;;;;;25.27;22.90;;;;;;;-3.50;60.24;95644.94;5074242;28;20224;-63
2021/12/22 03:59:00;;;;;;;26.75;24.17;;;;;;;-3.58;60.52;95648.06;5075474;28;20601;-63
2021/12/22 04:01:27;;;;;;;32.97;29.77;;;;;;;-3.64;60.45;95654.44;5075191;28;20185;-63
2021/12/22 04:04:00;;;;;;;32.83;29.77;;;;;;;-3.68;60.96;95646.03;5075466;28;20200;-63
2021/12/22 04:06:26;;;;;;;37.42;33.72;;;;;;;-3.66;61.05;95643.09;5075266;28;20507;-63
2021/12/22 04:08:53;;;;;;;39.28;35.47;;;;;;;-3.64;61.37;95649.88;5091340;28;20201;-63
2021/12/22 04:11:20;;;;;;;45.22;40.80;;;;;;;-3.63;61.10;95650.72;5075031;28;20530;-63
2021/12/22 04:13:48;;;;;;;42.33;38.25;;;;;;;-3.62;61.38;95646.94;5091848;28;20197;-63
2021/12/22 04:16:15;;;;;;;36.25;32.65;;;;;;;-3.60;61.16;95652.88;5075278;28;20219;-63
2021/12/22 04:18:42;;;;;;;34.80;31.50;;;;;;;-3.59;61.28;95653.72;5075120;28;20185;-63
2021/12/22 04:21:10;;;;;;;32.92;29.85;;;;;;;-3.61;60.83;95653.94;5075215;28;20188;-63
2021/12/22 04:23:37;;;;;;;34.30;30.83;;;;;;;-3.72;60.97;95654.88;5074853;28;20208;-63
2021/12/22 04:26:04;;;;;;;35.90;32.28;;;;;;;-3.80;60.83;95656.13;5073960;28;20290;-63
2021/12/22 04:28:31;;;;;;;36.15;32.53;;;;;;;-3.79;61.39;95649.66;5075362;28;20195;-63
2021/12/22 04:30:58;;;;;;;34.75;31.35;;;;;;;-3.77;61.40;95652.94;5075036;28;20191;-63
2021/12/22 04:33:25;;;;;;;34.30;31.02;;;;;;;-3.78;61.22;95656.69;5073958;28;20204;-63
2021/12/22 04:35:53;;;;;;;40.00;36.03;;;;;;;-3.78;61.68;95661.25;5074372;28;20187;-64
2021/12/22 04:38:22;;;;;;;38.63;34.63;;;;;;;-3.78;61.25;95659.38;5074083;28;20193;-63
2021/12/22 04:40:49;;;;;;;44.10;39.90;;;;;;;-3.78;61.28;95658.56;5074299;28;20196;-63
2021/12/22 04:43:15;;;;;;;39.65;35.85;;;;;;;-3.78;61.65;95666.66;5074116;28;20204;-63
2021/12/22 04:45:42;;;;;;;48.85;44.20;;;;;;;-3.81;61.92;95667.13;5075007;28;20205;-63
2021/12/22 04:48:10;;;;;;;52.72;47.72;;;;;;;-3.84;61.86;95673.88;5074096;28;20232;-63
2021/12/22 04:50:37;;;;;;;48.67;44.00;;;;;;;-3.78;61.75;95683.63;5074687;28;20276;-63
2021/12/22 04:53:10;;;;;;;41.03;36.95;;;;;;;-3.77;61.63;95677.19;5090888;28;20193;-63
2021/12/22 04:55:38;;;;;;;40.17;36.47;;;;;;;-3.73;61.65;95672.94;5074919;28;20247;-63
2021/12/22 04:58:05;;;;;;;40.40;36.50;;;;;;;-3.70;61.15;95675.16;5074119;28;20192;-63
2021/12/22 05:00:34;;;;;;;39.92;35.85;;;;;;;-3.70;61.20;95674.34;5074832;28;20196;-64
2021/12/22 05:03:01;;;;;;;41.45;37.25;;;;;;;-3.69;61.27;95678.66;5090728;28;20205;-64
2021/12/22 05:05:28;;;;;;;37.40;33.90;;;;;;;-3.68;61.55;95677.59;5074955;28;20209;-64
2021/12/22 05:07:55;;;;;;;38.63;34.92;;;;;;;-3.68;61.44;95675.69;5074898;28;20185;-62
2021/12/22 05:10:23;;;;;;;38.70;34.80;;;;;;;-3.67;61.24;95673.81;5090894;28;20193;-62
2021/12/22 05:12:51;;;;;;;35.08;31.65;;;;;;;-3.66;61.54;95686.25;5090786;28;20205;-63
2021/12/22 05:15:20;;;;;;;33.67;30.48;;;;;;;-3.62;61.60;95684.69;5074902;28;20189;-62
2021/12/22 05:20:43;;;;;;;39.97;36.35;;;;;;;-3.61;61.00;95690.88;5032929;28;20578;-65
2021/12/22 05:23:10;;;;;;;47.60;41.53;;;;;;;-3.59;61.35;95691.47;5064213;28;20213;-64
2021/12/22 05:25:36;;;;;;;43.45;38.47;;;;;;;-3.57;61.05;95698.22;5074937;28;20216;-64
2021/12/22 05:28:05;;;;;;;38.42;34.25;;;;;;;-3.52;60.98;95692.06;5074841;28;20207;-64
2021/12/22 05:30:32;;;;;;;39.17;34.95;;;;;;;-3.51;60.78;95697.25;5074060;28;20208;-64
2021/12/22 05:32:59;;;;;;;52.58;45.35;;;;;;;-3.52;61.03;95702.88;5074644;28;20511;-64
2021/12/22 05:35:25;;;;;;;48.88;43.22;;;;;;;-3.57;60.85;95700.91;5074459;28;20204;-64
2021/12/22 05:37:53;;;;;;;47.95;42.65;;;;;;;-3.63;61.11;95704.63;5090526;28;20205;-64
2021/12/22 05:40:20;;;;;;;54.53;47.60;;;;;;;-3.64;60.94;95703.78;5090550;28;20212;-64
2021/12/22 05:42:47;;;;;;;61.92;55.60;;;;;;;-3.68;60.91;95707.25;5073308;28;20197;-65
2021/12/22 05:45:15;;;;;;;65.25;58.78;;;;;;;-3.73;61.07;95710.69;5074398;28;20196;-64
2021/12/22 05:47:42;;;;;;;69.53;62.72;;;;;;;-3.77;61.38;95704.16;5077464;28;20195;-64
2021/12/22 05:50:09;;;;;;;65.50;58.80;;;;;;;-3.82;61.34;95706.75;5077781;28;20606;-63
2021/12/22 05:52:36;;;;;;;59.35;53.33;;;;;;;-3.82;61.27;95708.63;5076939;28;20205;-63
2021/12/22 05:55:03;;;;;;;60.60;54.42;;;;;;;-3.84;61.21;95706.22;5078007;28;20215;-65
2021/12/22 05:57:30;;;;;;;61.97;55.88;;;;;;;-3.81;60.94;95707.56;5093492;28;20228;-64
2021/12/22 05:59:57;;;;;;;57.38;51.67;;;;;;;-3.85;61.08;95704.56;5077806;28;20201;-64
2021/12/22 06:02:25;;;;;;;68.68;62.13;;;;;;;-3.83;61.38;95715.09;5093423;28;20197;-64
2021/12/22 06:04:52;;;;;;;162.95;150.55;;;;;;;-3.82;61.06;95719.44;5075766;28;20460;-64
2021/12/22 06:07:19;;;;;;;66.07;59.88;;;;;;;-3.83;60.88;95702.44;5076651;28;20220;-63
2021/12/22 06:09:45;;;;;;;61.85;55.83;;;;;;;-3.82;60.97;95709.47;5077620;28;20271;-64
2021/12/22 06:12:12;;;;;;;58.83;53.13;;;;;;;-3.79;61.61;95713.53;5093730;28;20197;-66
2021/12/22 06:14:39;;;;;;;57.25;51.75;;;;;;;-3.75;61.13;95715.50;5093491;28;20204;-65
2021/12/22 06:17:06;;;;;;;56.80;51.25;;;;;;;-3.71;61.24;95721.22;5077411;28;20212;-65
2021/12/22 06:19:34;;;;;;;50.25;45.35;;;;;;;-3.66;60.75;95730.19;5077210;28;20526;-65
2021/12/22 06:22:01;;;;;;;48.28;43.60;;;;;;;-3.64;60.53;95725.34;5076249;28;20210;-64
2021/12/22 06:24:29;;;;;;;47.28;42.70;;;;;;;-3.63;60.51;95732.41;5077905;28;20196;-63
2021/12/22 06:26:56;;;;;;;47.35;42.75;;;;;;;-3.60;60.48;95731.06;5077343;28;20220;-64
2021/12/22 06:29:23;;;;;;;45.83;41.58;;;;;;;-3.58;60.37;95737.03;5076683;28;20574;-64
2021/12/22 06:31:50;;;;;;;56.42;51.03;;;;;;;-3.60;61.14;95735.66;5093090;28;20200;-64
2021/12/22 06:34:17;;;;;;;56.35;50.95;;;;;;;-3.63;61.26;95734.28;5077166;28;20181;-64
2021/12/22 06:36:45;;;;;;;51.47;46.78;;;;;;;-3.63;61.11;95737.78;5076618;28;20529;-70
2021/12/22 06:39:12;;;;;;;53.55;48.50;;;;;;;-3.65;61.29;95739.09;5076724;28;20486;-64
2021/12/22 06:41:39;;;;;;;51.70;47.00;;;;;;;-3.64;61.02;95738.84;5076902;28;20192;-63
2021/12/22 06:44:06;;;;;;;38.03;34.65;;;;;;;-3.58;60.54;95737.03;5092884;28;20197;-65
2021/12/22 06:46:33;;;;;;;37.08;33.88;;;;;;;-3.55;60.72;95747.34;5074855;28;20432;-68
2021/12/22 06:49:00;;;;;;;34.67;31.45;;;;;;;-3.48;60.90;95736.38;5075532;28;20193;-65
2021/12/22 06:51:26;;;;;;;46.08;41.63;;;;;;;-3.50;60.68;95742.00;5076688;28;20210;-65
2021/12/22 06:53:55;;;;;;;37.85;34.30;;;;;;;-3.53;60.43;95741.69;5076855;28;20217;-63
2021/12/22 06:56:22;;;;;;;34.83;31.52;;;;;;;-3.51;60.49;95751.19;5076971;28;20671;-64
2021/12/22 06:58:48;;;;;;;28.27;25.30;;;;;;;-3.46;60.46;95748.53;5074652;28;20197;-64
2021/12/22 07:01:18;;;;;;;27.38;24.58;;;;;;;-3.32;60.17;95748.19;5093590;28;20205;-64
2021/12/22 07:03:45;;;;;;;35.42;32.13;;;;;;;-3.19;60.13;95751.34;5076428;28;20185;-64
2021/12/22 07:06:12;;;;;;;38.25;34.65;;;;;;;-3.14;60.18;95745.19;5076006;28;20205;-64
2021/12/22 07:08:39;;;;;;;34.10;30.77;;;;;;;-3.15;59.55;95749.78;5076423;28;20195;-64
2021/12/22 07:11:07;;;;;;;33.35;29.95;;;;;;;-3.18;59.77;95744.88;5092221;28;20657;-65
2021/12/22 07:13:34;;;;;;;27.95;25.33;;;;;;;-3.18;59.82;95750.28;5076314;28;20211;-66
2021/12/22 07:16:01;;;;;;;24.17;21.67;;;;;;;-3.09;59.75;95747.16;5092023;28;20648;-66
2021/12/22 07:18:28;;;;;;;25.13;22.77;;;;;;;-2.99;59.29;95745.38;5076039;28;20196;-65
2021/12/22 07:20:55;;;;;;;26.33;23.80;;;;;;;-2.93;59.08;95740.88;5076089;28;20185;-65
2021/12/22 07:23:22;;;;;;;23.75;21.45;;;;;;;-2.86;59.15;95740.69;5076063;28;20185;-67
2021/12/22 07:25:48;;;;;;;23.10;20.88;;;;;;;-2.79;58.97;95744.84;5076017;28;20189;-63
2021/12/22 07:28:17;;;;;;;19.38;17.40;;;;;;;-2.70;59.24;95751.41;5076278;28;20181;-66
2021/12/22 07:30:43;;;;;;;13.90;12.77;;;;;;;-2.60;58.70;95747.19;5075064;28;20205;-66
2021/12/22 07:33:11;;;;;;;14.73;13.43;;;;;;;-2.52;58.61;95744.03;5075751;28;20188;-64
2021/12/22 07:35:39;;;;;;;16.65;15.20;;;;;;;-2.33;58.70;95745.31;5075896;28;20669;-65
2021/12/22 07:38:22;;;;;;;17.25;15.82;;;;;;;-2.15;58.22;95736.03;5074720;28;20895;-64
2021/12/22 07:40:49;;;;;;;22.38;20.30;;;;;;;-2.04;57.36;95736.94;5075835;28;20493;-64
2021/12/22 07:43:17;;;;;;;20.50;18.70;;;;;;;-1.96;57.57;95736.50;5075815;28;20196;-64
2021/12/22 07:45:45;;;;;;;20.50;18.70;;;;;;;-1.83;57.85;95729.81;5090929;28;20428;-63
2021/12/22 07:48:11;;;;;;;19.77;18.00;;;;;;;-1.71;57.33;95733.97;5074561;28;20415;-65
2021/12/22 07:50:38;;;;;;;23.02;20.92;;;;;;;-1.69;57.11;95733.72;5076018;28;20189;-64
2021/12/22 07:53:05;;;;;;;27.65;25.25;;;;;;;-1.70;56.71;95734.78;5075328;28;20602;-67
2021/12/22 07:55:32;;;;;;;24.70;22.48;;;;;;;-1.75;56.47;95735.53;5075746;28;20191;-65
2021/12/22 07:57:59;;;;;;;26.77;24.27;;;;;;;-1.74;56.48;95730.97;5075743;28;20555;-65
2021/12/22 08:00:27;;;;;;;25.58;23.27;;;;;;;-1.84;56.17;95736.31;5091387;28;20211;-65
2021/12/22 08:02:54;;;;;;;25.17;22.98;;;;;;;-1.86;56.70;95736.53;5074519;28;20201;-65
2021/12/22 08:05:21;;;;;;;32.33;29.23;;;;;;;-1.78;57.19;95732.53;5076039;28;20185;-65
2021/12/22 08:07:48;;;;;;;34.30;30.98;;;;;;;-1.79;56.80;95745.25;5075688;28;20205;-67
2021/12/22 08:10:16;;;;;;;38.15;34.20;;;;;;;-1.77;56.60;95748.53;5074516;28;20302;-64
2021/12/22 08:12:42;;;;;;;37.60;33.90;;;;;;;-1.66;56.85;95752.13;5074286;28;20208;-64
2021/12/22 08:15:09;;;;;;;39.30;35.53;;;;;;;-1.54;57.37;95760.88;5075400;28;20196;-64
2021/12/22 08:17:38;;;;;;;39.28;35.40;;;;;;;-1.37;56.88;95757.22;5075533;28;20220;-63
2021/12/22 08:20:05;;;;;;;37.97;34.25;;;;;;;-1.28;56.36;95752.91;5075578;28;20185;-65
2021/12/22 08:22:32;;;;;;;41.35;37.35;;;;;;;-1.25;56.13;95764.03;5091553;28;20438;-64
2021/12/22 08:24:59;;;;;;;40.25;36.33;;;;;;;-1.25;55.96;95761.34;5091036;28;20432;-69
2021/12/22 08:27:26;;;;;;;42.00;37.92;;;;;;;-1.25;55.60;95753.22;5089776;28;20760;-64
2021/12/22 08:29:53;;;;;;;39.13;35.03;;;;;;;-1.16;55.87;95758.97;5075168;28;20186;-63
2021/12/22 08:32:20;;;;;;;37.80;34.28;;;;;;;-1.12;55.75;95754.66;5074232;28;20196;-64
2021/12/22 08:34:54;;;;;;;39.08;35.47;;;;;;;-1.10;55.60;95755.19;5090780;28;20197;-63
2021/12/22 08:40:07;;;;;;;37.35;33.92;;;;;;;-1.00;55.66;95766.09;5074530;28;20200;-63
2021/12/22 08:42:34;;;;;;;45.20;41.10;;;;;;;-0.93;54.75;95759.63;5075556;28;20211;-67
2021/12/22 08:45:00;;;;;;;37.10;33.70;;;;;;;-0.90;55.06;95767.22;5074437;28;20208;-64
2021/12/22 08:47:27;;;;;;;32.58;29.67;;;;;;;-0.77;55.59;95762.13;5074950;28;20201;-64
2021/12/22 08:49:56;;;;;;;31.55;28.60;;;;;;;-0.61;55.47;95768.44;5074434;28;20197;-64
2021/12/22 08:52:22;;;;;;;34.30;31.20;;;;;;;-0.49;54.67;95766.28;5074203;28;20212;-63
2021/12/22 08:54:49;;;;;;;34.33;31.13;;;;;;;-0.47;54.01;95771.47;5075164;28;20197;-63
2021/12/22 08:57:16;;;;;;;38.45;35.03;;;;;;;-0.43;54.31;95772.56;5074647;28;20739;-63
2021/12/22 08:59:44;;;;;;;35.38;32.10;;;;;;;-0.50;53.64;95763.88;5074157;28;20197;-63
2021/12/22 09:02:11;;;;;;;32.47;29.58;;;;;;;-0.49;53.24;95765.50;5074900;28;20186;-63
2021/12/22 09:04:38;;;;;;;30.60;27.70;;;;;;;-0.50;52.78;95761.16;5074645;28;20199;-63
2021/12/22 09:07:06;;;;;;;32.30;29.42;;;;;;;-0.54;52.75;95766.28;5090966;28;20209;-64
2021/12/22 09:09:33;;;;;;;35.33;32.17;;;;;;;-0.59;53.25;95765.44;5074219;28;20200;-64
2021/12/22 09:12:00;;;;;;;37.78;34.28;;;;;;;-0.55;53.71;95764.63;5075043;28;20189;-65
2021/12/22 09:14:27;;;;;;;33.45;30.35;;;;;;;-0.51;53.65;95765.75;5090451;28;20205;-63
2021/12/22 09:16:54;;;;;;;32.53;29.63;;;;;;;-0.43;53.57;95752.78;5091040;28;20192;-64
2021/12/22 09:19:23;;;;;;;33.53;30.40;;;;;;;-0.38;53.22;95758.19;5073863;28;20201;-63
2021/12/22 09:21:51;;;;;;;31.95;28.98;;;;;;;-0.33;52.93;95756.34;5076382;28;20242;-64
2021/12/22 09:24:19;;;;;;;33.97;30.67;;;;;;;-0.28;53.19;95753.63;5078287;28;20197;-65
2021/12/22 09:26:46;;;;;;;37.28;33.58;;;;;;;-0.21;53.11;95758.78;5095031;28;20213;-66
2021/12/22 09:29:13;;;;;;;36.08;32.65;;;;;;;-0.11;53.36;95749.84;5078578;28;20188;-67
2021/12/22 09:31:40;;;;;;;34.47;31.17;;;;;;;0.03;52.85;95748.25;5078632;28;20208;-64
2021/12/22 09:34:07;;;;;;;34.65;31.02;;;;;;;0.23;53.75;95748.28;5078351;28;20540;-63
2021/12/22 09:36:34;;;;;;;33.00;29.92;;;;;;;0.35;53.01;95744.47;5077624;28;20197;-64
2021/12/22 09:39:01;;;;;;;34.10;30.55;;;;;;;0.34;51.73;95734.72;5077377;28;20207;-64
2021/12/22 09:41:29;;;;;;;32.15;29.08;;;;;;;0.41;51.35;95737.97;5078697;28;20196;-64
2021/12/22 09:43:59;;;;;;;31.40;28.40;;;;;;;0.53;51.44;95737.66;5094752;28;20205;-64
2021/12/22 09:46:25;;;;;;;33.65;30.35;;;;;;;0.62;51.00;95731.44;5078307;28;20272;-64
2021/12/22 09:48:59;;;;;;;33.17;30.02;;;;;;;0.78;51.42;95726.78;5094393;28;20197;-64
2021/12/22 09:54:13;;;;;;;36.03;32.58;;;;;;;1.04;50.25;95724.00;5076757;28;20286;-64
2021/12/22 09:56:42;;;;;;;36.55;33.03;;;;;;;1.12;50.27;95720.69;5077832;28;20241;-64
2021/12/22 09:59:10;;;;;;;37.80;34.20;;;;;;;1.20;50.25;95720.97;5077785;28;20201;-64
2021/12/22 10:01:37;;;;;;;36.88;33.38;;;;;;;1.18;49.60;95722.31;5077386;28;20228;-64
2021/12/22 10:04:04;;;;;;;39.00;35.40;;;;;;;1.19;49.83;95713.88;5094075;28;20201;-63
2021/12/22 10:06:31;;;;;;;38.28;34.70;;;;;;;1.23;50.04;95708.69;5076982;28;20200;-63
2021/12/22 10:09:00;;;;;;;37.92;34.33;;;;;;;1.25;50.71;95706.53;5093630;28;20189;-63
2021/12/22 10:11:30;;;;;;;38.28;34.65;;;;;;;1.30;49.97;95700.25;5076676;28;20203;-63
2021/12/22 10:13:59;;;;;;;40.00;36.25;;;;;;;1.28;49.61;95697.81;5077273;28;20207;-64
2021/12/22 10:16:27;;;;;;;38.22;34.45;;;;;;;1.19;50.00;95702.19;5077425;28;20215;-63
2021/12/22 10:19:06;;;;;;;43.38;39.15;;;;;;;1.20;50.01;95707.38;5076527;28;20204;-65
2021/12/22 10:21:36;;;;;;;42.63;38.53;;;;;;;1.22;50.07;95701.63;5094092;28;20212;-63
2021/12/22 10:24:05;;;;;;;42.33;38.33;;;;;;;1.23;50.12;95699.72;5076538;28;20308;-64
2021/12/22 10:26:32;;;;;;;37.80;34.22;;;;;;;1.23;50.37;95703.25;5077385;28;20207;-64
2021/12/22 10:29:03;;;;;;;35.08;31.63;;;;;;;1.19;50.16;95699.47;5077146;28;20209;-64
2021/12/22 10:31:34;;;;;;;30.48;27.65;;;;;;;1.19;50.00;95699.47;5077310;28;20181;-64
2021/12/22 10:34:05;;;;;;;31.10;27.90;;;;;;;1.17;50.44;95696.25;5075087;28;20196;-64
2021/12/22 10:36:43;;;;;;;30.23;27.25;;;;;;;1.18;49.66;95700.56;5076797;28;20186;-65
2021/12/22 10:39:18;;;;;;;28.38;25.67;;;;;;;1.09;50.51;95702.22;5077027;28;20195;-65
2021/12/22 10:41:45;;;;;;;27.10;24.25;;;;;;;1.09;50.33;95692.19;5076812;28;20181;-64
2021/12/22 10:44:13;;;;;;;30.05;27.05;;;;;;;1.04;49.60;95702.25;5093117;28;20545;-66
2021/12/22 10:46:40;;;;;;;31.67;28.58;;;;;;;1.11;49.66;95690.00;5075186;28;20880;-64
2021/12/22 10:49:17;;;;;;;31.08;27.90;;;;;;;1.13;50.63;95697.88;5092849;28;20182;-66
2021/12/22 10:51:49;;;;;;;30.02;26.33;;;;;;;1.04;50.30;95689.47;5076828;28;20192;-65
2021/12/22 10:54:17;;;;;;;29.10;26.08;;;;;;;1.09;50.92;95688.66;5075640;28;20219;-65
2021/12/22 10:56:46;;;;;;;28.20;25.35;;;;;;;1.12;50.51;95683.47;5075554;28;20240;-65
2021/12/22 10:59:17;;;;;;;30.52;27.73;;;;;;;1.18;50.12;95676.13;5076445;28;20178;-66
2021/12/22 11:02:05;;;;;;;30.95;28.13;;;;;;;1.18;49.89;95665.25;5076419;28;20185;-66
2021/12/22 11:04:33;;;;;;;30.55;27.50;;;;;;;1.19;50.42;95664.97;5075626;28;20205;-65
2021/12/22 11:07:07;;;;;;;29.33;26.45;;;;;;;1.25;50.69;95668.47;5075654;28;20211;-66
2021/12/22 11:09:36;;;;;;;30.08;26.73;;;;;;;1.29;50.73;95666.81;5076501;28;20182;-66
2021/12/22 11:12:05;;;;;;;27.95;25.25;;;;;;;1.33;49.88;95667.09;5091471;28;20521;-64
2021/12/22 11:14:36;;;;;;;32.88;29.70;;;;;;;1.44;50.21;95655.06;5076340;28;20181;-64
2021/12/22 11:17:05;;;;;;;34.92;31.55;;;;;;;1.58;49.79;95657.97;5076197;28;20201;-65
2021/12/22 11:19:37;;;;;;;34.30;30.38;;;;;;;1.61;50.06;95663.66;5076162;28;20533;-64
2021/12/22 11:22:10;;;;;;;32.35;28.95;;;;;;;1.65;49.83;95658.47;5076410;28;20287;-64
2021/12/22 11:24:39;;;;;;;29.70;26.67;;;;;;;1.67;49.25;95658.97;5076359;28;20181;-67
2021/12/22 11:27:07;;;;;;;29.73;26.85;;;;;;;1.80;49.05;95655.63;5090967;28;20439;-63
2021/12/22 11:29:36;;;;;;;30.75;27.83;;;;;;;1.86;48.97;95653.72;5076068;28;20617;-68
2021/12/22 11:32:05;;;;;;;27.05;24.60;;;;;;;1.88;48.44;95655.03;5075810;28;20185;-67
2021/12/22 11:34:35;;;;;;;28.17;25.53;;;;;;;1.92;48.66;95647.94;5074959;28;20428;-64
2021/12/22 11:37:04;;;;;;;26.20;23.70;;;;;;;1.95;48.86;95649.28;5075880;28;20197;-64